Time;durP1;ratioP1;P1;durP2;ratioP2;P2;SDS_P1;SDS_P2;PMS_P1;PMS_P2;Temp;Humidity;BMP_temperature;BMP_pressure;BME280_temperature;BME280_humidity;BME280_pressure;Samples;Min_cycle;Max_cycle;Signal;HPM_P1;HPM_P2
2022/04/24 00:01:56;;;;;;;0.00;0.00;;;;;;;;;;5019416;28;20203;-72
2022/04/24 00:04:24;;;;;;;0.10;0.10;;;;;;;;;;5019575;28;20650;-72
2022/04/24 00:06:52;;;;;;;0.10;0.10;;;;;;;;;;5018824;28;21249;-72
2022/04/24 00:09:19;;;;;;;0.10;0.10;;;;;;;;;;5015683;28;20701;-72
2022/04/24 00:11:49;;;;;;;0.10;0.10;;;;;;;;;;5020387;28;20623;-72
2022/04/24 00:14:17;;;;;;;0.10;0.10;;;;;;;;;;5020276;28;20698;-72
2022/04/24 00:16:46;;;;;;;0.10;0.10;;;;;;;;;;5017588;28;20658;-73
2022/04/24 00:19:15;;;;;;;0.10;0.10;;;;;;;;;;5019663;28;20618;-73
2022/04/24 00:21:44;;;;;;;0.10;0.10;;;;;;;;;;5020720;28;20745;-72
2022/04/24 00:24:11;;;;;;;0.07;0.07;;;;;;;;;;5019157;28;21262;-72
2022/04/24 00:26:38;;;;;;;0.10;0.10;;;;;;;;;;5017599;28;20611;-72
2022/04/24 00:29:06;;;;;;;0.10;0.10;;;;;;;;;;5018919;28;20646;-72
2022/04/24 00:31:34;;;;;;;0.10;0.10;;;;;;;;;;5020778;28;20653;-72
2022/04/24 00:34:01;;;;;;;0.10;0.10;;;;;;;;;;5020839;28;20670;-72
2022/04/24 00:36:29;;;;;;;0.10;0.10;;;;;;;;;;5020443;28;20662;-72
2022/04/24 00:38:56;;;;;;;0.10;0.10;;;;;;;;;;5014999;28;20626;-72
2022/04/24 00:41:23;;;;;;;0.10;0.10;;;;;;;;;;5019592;28;20654;-72
2022/04/24 00:43:52;;;;;;;0.10;0.10;;;;;;;;;;5022707;28;20657;-73
2022/04/24 00:46:57;;;;;;;0.10;0.10;;;;;;;;;;5017050;28;20692;-73
2022/04/24 00:49:24;;;;;;;0.10;0.10;;;;;;;;;;5017316;28;20646;-72
2022/04/24 00:51:53;;;;;;;0.10;0.10;;;;;;;;;;5020495;28;20638;-72
2022/04/24 00:54:20;;;;;;;0.10;0.10;;;;;;;;;;5019110;28;20654;-72
2022/04/24 00:56:48;;;;;;;0.10;0.10;;;;;;;;;;5019853;28;20682;-73
2022/04/24 00:59:16;;;;;;;0.10;0.10;;;;;;;;;;5020571;28;20615;-72
2022/04/24 01:01:44;;;;;;;0.10;0.10;;;;;;;;;;5022466;28;21225;-72
2022/04/24 01:04:13;;;;;;;0.10;0.10;;;;;;;;;;5019022;28;20663;-73
2022/04/24 01:06:42;;;;;;;0.07;0.07;;;8.30;99.90;;;;;;5014172;28;20631;-72
2022/04/24 01:09:13;;;;;;;0.10;0.10;;;;;;;;;;5015175;28;20749;-73
2022/04/24 01:11:40;;;;;;;0.10;0.10;;;7.60;99.90;;;;;;5030622;28;20623;-72
2022/04/24 01:14:09;;;;;;;0.10;0.10;;;7.40;99.90;;;;;;5018058;28;20693;-72
2022/04/24 01:16:36;;;;;;;0.10;0.10;;;7.50;99.90;;;;;;5016367;28;20645;-73
2022/04/24 01:19:04;;;;;;;0.10;0.10;;;;;;;;;;5018891;28;20701;-73
2022/04/24 01:21:32;;;;;;;0.10;0.10;;;7.40;99.90;;;;;;5016756;28;20781;-72
2022/04/24 01:23:59;;;;;;;0.13;0.13;;;;;;;;;;5016779;28;20716;-73
2022/04/24 01:26:27;;;;;;;0.10;0.10;;;;;;;;;;5016725;28;20706;-73
2022/04/24 01:28:54;;;;;;;0.10;0.10;;;;;;;;;;5020452;28;20681;-73
2022/04/24 01:31:21;;;;;;;0.10;0.10;;;;;;;;;;5018945;28;20618;-73
2022/04/24 01:33:49;;;;;;;0.10;0.10;;;;;;;;;;5019307;28;20643;-73
2022/04/24 01:36:16;;;;;;;0.10;0.10;;;;;;;;;;5019914;28;20622;-73
2022/04/24 01:38:45;;;;;;;0.10;0.10;;;7.20;99.90;;;;;;5018972;28;20729;-73
2022/04/24 01:41:12;;;;;;;0.13;0.13;;;7.20;99.90;;;;;;5018761;28;20642;-74
2022/04/24 01:43:39;;;;;;;0.10;0.10;;;7.20;99.90;;;;;;5020948;28;20657;-73
2022/04/24 01:46:06;;;;;;;0.10;0.10;;;7.10;99.90;;;;;;5019925;28;20630;-73
2022/04/24 01:48:33;;;;;;;0.20;0.20;;;7.10;99.90;;;;;;5038792;28;20634;-73
2022/04/24 01:51:00;;;;;;;0.10;0.10;;;;;;;;;;5024572;28;20688;-73
2022/04/24 01:53:28;;;;;;;0.10;0.10;;;7.10;99.90;;;;;;5022385;28;20644;-73
2022/04/24 01:55:57;;;;;;;0.10;0.10;;;7.10;99.90;;;;;;5022759;28;20632;-73
2022/04/24 01:58:24;;;;;;;0.10;0.10;;;7.10;99.90;;;;;;5024446;28;20617;-73
2022/04/24 02:00:51;;;;;;;0.10;0.10;;;7.10;99.90;;;;;;5024740;28;20745;-73
2022/04/24 02:03:19;;;;;;;0.20;0.20;;;7.10;99.90;;;;;;5025427;28;20657;-73
2022/04/24 02:05:46;;;;;;;0.20;0.20;;;7.00;99.90;;;;;;5023923;28;20602;-73
2022/04/24 02:08:13;;;;;;;0.10;0.10;;;7.00;99.90;;;;;;5022911;28;20722;-73
2022/04/24 02:10:41;;;;;;;0.10;0.10;;;7.00;99.90;;;;;;5034864;28;20734;-73
2022/04/24 02:13:10;;;;;;;0.20;0.20;;;;;;;;;;5021523;28;20642;-73
2022/04/24 02:15:38;;;;;;;0.10;0.10;;;;;;;;;;5022936;28;20615;-73
2022/04/24 02:18:06;;;;;;;0.10;0.10;;;;;;;;;;5019294;28;20622;-73
2022/04/24 02:20:33;;;;;;;0.10;0.10;;;;;;;;;;5022337;28;20637;-73
2022/04/24 02:23:01;;;;;;;0.10;0.10;;;;;;;;;;5021782;28;20979;-73
2022/04/24 02:25:30;;;;;;;0.10;0.10;;;;;;;;;;5036089;28;20622;-73
2022/04/24 02:27:58;;;;;;;0.10;0.10;;;;;;;;;;5021616;28;21235;-73
2022/04/24 02:30:28;;;;;;;0.10;0.10;;;;;;;;;;5021789;28;20622;-73
2022/04/24 02:32:57;;;;;;;0.10;0.10;;;;;;;;;;5026919;28;20737;-73
2022/04/24 02:35:23;;;;;;;0.13;0.13;;;7.00;99.90;;;;;;5022026;28;20614;-73
2022/04/24 02:37:51;;;;;;;0.10;0.10;;;;;;;;;;5020958;28;20623;-73
2022/04/24 02:40:21;;;;;;;0.10;0.10;;;;;;;;;;5023165;28;20613;-73
2022/04/24 02:42:50;;;;;;;0.20;0.20;;;;;;;;;;5022482;28;20607;-73
2022/04/24 02:45:17;;;;;;;0.20;0.20;;;;;;;;;;5020379;28;20684;-73
2022/04/24 02:47:46;;;;;;;0.10;0.10;;;;;;;;;;5017731;28;20666;-73
2022/04/24 02:50:14;;;;;;;0.10;0.10;;;;;;;;;;5019700;28;20626;-73
2022/04/24 02:52:48;;;;;;;0.10;0.10;;;;;;;;;;5021175;28;20973;-73
2022/04/24 02:55:15;;;;;;;0.10;0.10;;;;;;;;;;5021714;28;20792;-73
2022/04/24 02:57:43;;;;;;;0.10;0.10;;;;;;;;;;5019962;28;20610;-73
2022/04/24 03:00:11;;;;;;;0.10;0.10;;;;;;;;;;5020323;28;20641;-73
2022/04/24 03:02:42;;;;;;;0.10;0.10;;;;;;;;;;5027674;28;20650;-73
2022/04/24 03:05:13;;;;;;;0.20;0.20;;;;;;;;;;5021242;28;20666;-74
2022/04/24 03:07:40;;;;;;;0.20;0.20;;;;;;;;;;5019929;28;20630;-73
2022/04/24 03:10:09;;;;;;;0.10;0.10;;;;;;;;;;5018687;28;20626;-73
2022/04/24 03:12:36;;;;;;;0.10;0.10;;;;;;;;;;5019030;28;21358;-73
2022/04/24 03:15:04;;;;;;;0.10;0.10;;;;;;;;;;5022198;28;20642;-73
2022/04/24 03:17:32;;;;;;;0.10;0.10;;;;;;;;;;5016840;28;20704;-73
2022/04/24 03:19:59;;;;;;;0.10;0.10;;;;;;;;;;5021494;28;20637;-73
2022/04/24 03:22:28;;;;;;;0.10;0.10;;;;;;;;;;5020566;28;20661;-73
2022/04/24 03:24:56;;;;;;;0.10;0.10;;;;;;;;;;5019283;28;20685;-73
2022/04/24 03:27:23;;;;;;;0.10;0.10;;;;;;;;;;5018999;28;20657;-73
2022/04/24 03:29:50;;;;;;;0.10;0.10;;;;;;;;;;5021324;28;21207;-73
2022/04/24 03:32:18;;;;;;;0.10;0.10;;;;;;;;;;5022132;28;20621;-74
2022/04/24 03:34:45;;;;;;;0.10;0.10;;;;;;;;;;5020685;28;20699;-73
2022/04/24 03:37:12;;;;;;;0.10;0.10;;;;;;;;;;5019984;28;20631;-73
2022/04/24 03:39:41;;;;;;;0.10;0.10;;;;;;;;;;5021835;28;20610;-74
2022/04/24 03:42:09;;;;;;;0.10;0.10;;;;;;;;;;5021314;28;20666;-73
2022/04/24 03:44:36;;;;;;;0.10;0.10;;;;;;;;;;5023035;28;20658;-73
2022/04/24 03:47:04;;;;;;;0.10;0.10;;;;;;;;;;5019660;28;20676;-73
2022/04/24 03:49:32;;;;;;;0.10;0.10;;;;;;;;;;5018151;28;20648;-73
2022/04/24 03:51:59;;;;;;;0.20;0.20;;;;;;;;;;5021958;28;20610;-73
2022/04/24 03:54:26;;;;;;;0.10;0.10;;;;;;;;;;5014180;28;20778;-73
2022/04/24 03:56:55;;;;;;;0.20;0.20;;;;;;;;;;5018504;28;20622;-73
2022/04/24 03:59:23;;;;;;;0.10;0.10;;;;;;;;;;5018551;28;20618;-73
2022/04/24 04:01:50;;;;;;;0.10;0.10;;;;;;;;;;5019631;28;20682;-73
2022/04/24 04:04:17;;;;;;;0.10;0.10;;;;;;;;;;5019223;28;20693;-73
2022/04/24 04:06:45;;;;;;;0.10;0.10;;;;;;;;;;5019015;28;20708;-73
2022/04/24 04:09:12;;;;;;;0.10;0.10;;;;;;;;;;5017787;28;20619;-73
2022/04/24 04:11:39;;;;;;;0.20;0.20;;;;;;;;;;5016763;28;20694;-74
2022/04/24 04:14:08;;;;;;;0.10;0.10;;;;;;;;;;5017643;28;20659;-73
2022/04/24 04:16:35;;;;;;;0.10;0.10;;;;;;;;;;5018674;28;20626;-73
2022/04/24 04:19:03;;;;;;;0.10;0.10;;;;;;;;;;5021680;28;20646;-73
2022/04/24 04:21:30;;;;;;;0.10;0.10;;;;;;;;;;5018118;28;20651;-73
2022/04/24 04:23:58;;;;;;;0.10;0.10;;;;;;;;;;5020045;28;21120;-73
2022/04/24 04:26:25;;;;;;;0.10;0.10;;;;;;;;;;5019702;28;20637;-73
2022/04/24 04:28:53;;;;;;;0.10;0.10;;;;;;;;;;5019613;28;20638;-73
2022/04/24 04:31:22;;;;;;;0.10;0.10;;;;;;;;;;5017257;28;20615;-73
2022/04/24 04:33:49;;;;;;;0.10;0.10;;;;;;;;;;5016540;28;20683;-73
2022/04/24 04:36:17;;;;;;;0.10;0.10;;;;;;;;;;5018177;28;20653;-72
2022/04/24 04:38:44;;;;;;;0.10;0.10;;;;;;;;;;5018925;28;20641;-72
2022/04/24 04:41:12;;;;;;;0.10;0.10;;;;;;;;;;5018381;28;20658;-73
2022/04/24 04:43:40;;;;;;;0.10;0.10;;;;;;;;;;5036041;28;20666;-73
2022/04/24 04:46:07;;;;;;;0.20;0.20;;;;;;;;;;5019815;28;20611;-72
2022/04/24 04:48:36;;;;;;;0.10;0.10;;;;;;;;;;5017206;28;20718;-73
2022/04/24 04:51:03;;;;;;;0.20;0.20;;;;;;;;;;5018655;28;20627;-73
2022/04/24 04:53:30;;;;;;;0.10;0.10;;;;;;;;;;5018126;28;20736;-72
2022/04/24 04:55:58;;;;;;;0.10;0.10;;;;;;;;;;5016938;28;20631;-73
2022/04/24 04:58:25;;;;;;;0.17;0.17;;;;;;;;;;5018932;28;20677;-72
2022/04/24 05:00:53;;;;;;;0.10;0.10;;;;;;;;;;5025541;28;20653;-73
2022/04/24 05:03:20;;;;;;;0.10;0.10;;;;;;;;;;5018599;28;20753;-73
2022/04/24 05:05:48;;;;;;;0.10;0.10;;;;;;;;;;5011655;28;20635;-72
2022/04/24 05:08:16;;;;;;;0.10;0.10;;;;;;;;;;5013780;28;20632;-74
2022/04/24 05:10:43;;;;;;;0.10;0.10;;;;;;;;;;5018988;28;20626;-73
2022/04/24 05:13:11;;;;;;;0.10;0.10;;;;;;;;;;5019158;28;20651;-72
2022/04/24 05:15:38;;;;;;;0.10;0.10;;;;;;;;;;5014484;28;20614;-73
2022/04/24 05:18:05;;;;;;;0.17;0.17;;;;;;;;;;5016714;28;20772;-73
2022/04/24 05:20:32;;;;;;;0.10;0.10;;;;;;;;;;5020087;28;20618;-72
2022/04/24 05:23:08;;;;;;;0.10;0.10;;;;;;;;;;5017899;28;20658;-73
2022/04/24 05:25:36;;;;;;;0.10;0.10;;;;;;;;;;5020032;28;20606;-73
2022/04/24 05:28:04;;;;;;;0.10;0.10;;;;;;;;;;5018984;28;20630;-73
2022/04/24 05:30:33;;;;;;;0.13;0.13;;;;;;;;;;5024570;28;20614;-74
2022/04/24 05:33:00;;;;;;;0.10;0.10;;;;;;;;;;5026451;28;20627;-73
2022/04/24 05:35:28;;;;;;;0.20;0.20;;;;;;;;;;5036850;28;20741;-73
2022/04/24 05:37:55;;;;;;;0.10;0.10;;;;;;;;;;5022200;28;20633;-73
2022/04/24 05:40:24;;;;;;;0.20;0.20;;;;;;;;;;5024457;28;20698;-72
2022/04/24 05:42:53;;;;;;;0.10;0.10;;;;;;;;;;5022221;28;21253;-73
2022/04/24 05:45:22;;;;;;;0.10;0.10;;;;;;;;;;5024062;28;20674;-73
2022/04/24 05:47:50;;;;;;;0.10;0.10;;;;;;;;;;5022947;28;20614;-73
2022/04/24 05:50:17;;;;;;;0.10;0.10;;;;;;;;;;5023785;28;20656;-73
2022/04/24 05:52:45;;;;;;;0.10;0.10;;;;;;;;;;5023679;28;20623;-73
2022/04/24 05:55:14;;;;;;;0.10;0.10;;;;;;;;;;5016926;28;20650;-73
2022/04/24 05:57:43;;;;;;;0.10;0.10;;;;;;;;;;5022805;28;20614;-73
2022/04/24 06:00:14;;;;;;;0.20;0.20;;;;;;;;;;5020469;28;20721;-73
2022/04/24 06:02:42;;;;;;;0.10;0.10;;;;;;;;;;5021165;28;20662;-74
2022/04/24 06:05:11;;;;;;;0.10;0.10;;;;;;;;;;5034511;28;20665;-73
2022/04/24 06:07:39;;;;;;;0.20;0.20;;;;;;;;;;5018791;28;21280;-73
2022/04/24 06:10:07;;;;;;;0.10;0.10;;;;;;;;;;5018846;28;20619;-72
2022/04/24 06:12:45;;;;;;;0.10;0.10;;;;;;;;;;5020956;28;20677;-73
2022/04/24 06:15:15;;;;;;;0.20;0.20;;;;;;;;;;5022847;28;20658;-73
2022/04/24 06:17:43;;;;;;;0.10;0.10;;;;;;;;;;5020648;28;20630;-73
2022/04/24 06:20:11;;;;;;;0.10;0.10;;;;;;;;;;5022911;28;20638;-73
2022/04/24 06:22:45;;;;;;;0.10;0.10;;;;;;;;;;5020400;28;20694;-73
2022/04/24 06:25:16;;;;;;;0.13;0.13;;;;;;;;;;5020813;28;20662;-73
2022/04/24 06:27:43;;;;;;;0.10;0.10;;;;;;;;;;5022324;28;20717;-72
2022/04/24 06:30:12;;;;;;;0.10;0.10;;;;;;;;;;5021858;28;20635;-72
2022/04/24 06:32:41;;;;;;;0.10;0.10;;;;;;;;;;5012673;28;20634;-73
2022/04/24 06:35:09;;;;;;;0.10;0.10;;;;;;;;;;5038916;28;20224;-72
2022/04/24 06:37:37;;;;;;;0.20;0.20;;;;;;;;;;5024844;28;20626;-73
2022/04/24 06:40:05;;;;;;;0.10;0.10;;;;;;;;;;5023221;28;20204;-73
2022/04/24 06:42:32;;;;;;;0.10;0.10;;;;;;;;;;5018942;28;20255;-74
2022/04/24 06:45:00;;;;;;;0.10;0.10;;;;;;;;;;5021380;28;20234;-73
2022/04/24 06:47:29;;;;;;;0.10;0.10;;;;;;;;;;5025170;28;20191;-73
2022/04/24 06:49:56;;;;;;;0.10;0.10;;;;;;;;;;5026536;28;20196;-74
2022/04/24 06:52:23;;;;;;;0.10;0.10;;;;;;;;;;5027330;28;20219;-73
2022/04/24 06:54:51;;;;;;;0.10;0.10;;;;;;;;;;5026592;28;20244;-73
2022/04/24 06:57:18;;;;;;;0.10;0.10;;;;;;;;;;5024736;28;20207;-73
2022/04/24 06:59:46;;;;;;;0.10;0.10;;;;;;;;;;5025409;28;20669;-69
2022/04/24 07:02:14;;;;;;;0.10;0.10;;;;;;;;;;5026667;28;20224;-71
2022/04/24 07:04:43;;;;;;;0.10;0.10;;;;;;;;;;5027285;28;20220;-76
2022/04/24 07:07:10;;;;;;;0.10;0.10;;;;;;;;;;5022101;28;20261;-70
2022/04/24 07:09:38;;;;;;;0.10;0.10;;;;;;;;;;5019126;28;20228;-74
2022/04/24 07:12:05;;;;;;;0.10;0.10;;;;;;;;;;5026874;28;20196;-77
2022/04/24 07:14:33;;;;;;;0.10;0.10;;;;;;;;;;5016151;28;20232;-76
2022/04/24 07:17:00;;;;;;;0.10;0.10;;;;;;;;;;5020461;28;20208;-72
2022/04/24 07:19:28;;;;;;;0.10;0.10;;;;;;;;;;5035718;28;20207;-72
2022/04/24 07:21:57;;;;;;;0.10;0.10;;;;;;;;;;5035576;23;20231;-78
2022/04/24 07:24:25;;;;;;;0.10;0.10;;;;;;;;;;5042419;28;20207;-78
2022/04/24 07:26:52;;;;;;;0.10;0.10;;;;;;;;;;5023042;28;20238;-78
2022/04/24 07:29:20;;;;;;;0.10;0.10;;;;;;;;;;5026047;28;20210;-78
2022/04/24 07:31:47;;;;;;;0.10;0.10;;;;;;;;;;5050361;28;20207;-77
2022/04/24 07:34:14;;;;;;;0.10;0.10;;;;;;;;;;5041364;28;20195;-78
2022/04/24 07:36:42;;;;;;;0.10;0.10;;;;;;;;;;5034555;28;20223;-78
2022/04/24 07:39:13;;;;;;;0.10;0.10;;;;;;;;;;5040083;28;20195;-78
2022/04/24 07:41:40;;;;;;;0.10;0.10;;;;;;;;;;5045359;28;20202;-79
2022/04/24 07:44:08;;;;;;;0.10;0.10;;;;;;;;;;5050493;22;20223;-82
2022/04/24 07:46:35;;;;;;;0.10;0.10;;;;;;;;;;5030871;28;20203;-83
2022/04/24 07:49:03;;;;;;;0.10;0.10;;;;;;;;;;5046487;28;20209;-80
2022/04/24 07:51:30;;;;;;;0.10;0.10;;;;;;;;;;5022210;28;20281;-78
2022/04/24 07:53:58;;;;;;;0.10;0.10;;;;;;;;;;5012247;28;20239;-70
2022/04/24 07:56:27;;;;;;;0.10;0.10;;;;;;;;;;5024736;28;20210;-72
2022/04/24 07:58:55;;;;;;;0.10;0.10;;;;;;;;;;5009830;28;20302;-72
2022/04/24 08:01:22;;;;;;;0.10;0.10;;;;;;;;;;5003218;28;20267;-75
2022/04/24 08:03:49;;;;;;;0.10;0.10;;;;;;;;;;5005606;28;20223;-73
2022/04/24 08:06:16;;;;;;;0.00;0.00;;;;;;;;;;5020471;28;20208;-70
2022/04/24 08:08:44;;;;;;;0.10;0.10;;;;;;;;;;5004557;28;20223;-72
2022/04/24 08:11:11;;;;;;;0.10;0.10;;;;;;;;;;5016150;28;20222;-73
2022/04/24 08:13:40;;;;;;;0.10;0.10;;;;;;;;;;5000599;28;20223;-73
2022/04/24 08:16:07;;;;;;;0.10;0.10;;;;;;;;;;5015164;28;20199;-72
2022/04/24 08:18:36;;;;;;;0.10;0.10;;;;;;;;;;5003982;28;20231;-72
2022/04/24 08:21:03;;;;;;;0.10;0.10;;;14.10;99.90;;;;;;5005513;28;20204;-76
2022/04/24 08:23:30;;;;;;;0.10;0.10;;;;;;;;;;5005404;28;20227;-74
2022/04/24 08:25:58;;;;;;;0.10;0.10;;;;;;;;;;5024447;28;20212;-72
2022/04/24 08:28:26;;;;;;;0.10;0.10;;;;;;;;;;4999997;28;20216;-74
2022/04/24 08:30:55;;;;;;;0.10;0.10;;;;;;;;;;5025302;28;20203;-73
2022/04/24 08:33:22;;;;;;;0.10;0.10;;;;;;;;;;5004849;28;20224;-72
2022/04/24 08:35:50;;;;;;;0.10;0.10;;;;;;;;;;5004892;28;20204;-72
2022/04/24 08:38:17;;;;;;;0.10;0.10;;;;;;;;;;5005252;28;20207;-73
2022/04/24 08:40:46;;;;;;;0.00;0.00;;;;;;;;;;4994567;28;20203;-73
2022/04/24 08:43:14;;;;;;;0.10;0.10;;;14.30;99.90;;;;;;5006319;28;20306;-73
2022/04/24 08:45:42;;;;;;;0.10;0.10;;;14.70;99.90;;;;;;5021302;28;20208;-73
2022/04/24 08:48:11;;;;;;;0.10;0.10;;;14.80;99.90;;;;;;5019527;28;20199;-73
2022/04/24 08:50:39;;;;;;;0.00;0.00;;;14.90;99.90;;;;;;4999009;28;20590;-72
2022/04/24 08:53:09;;;;;;;0.10;0.10;;;15.00;99.90;;;;;;5009239;28;20193;-69
2022/04/24 08:55:36;;;;;;;0.10;0.10;;;14.90;99.90;;;;;;5003996;28;20200;-70
2022/04/24 08:58:03;;;;;;;0.00;0.00;;;15.20;99.90;;;;;;5017096;28;20208;-70
2022/04/24 09:00:30;;;;;;;0.00;0.00;;;15.20;99.90;;;;;;5003259;28;20299;-71
2022/04/24 09:02:58;;;;;;;0.00;0.00;;;15.20;99.90;;;;;;5023473;28;20843;-71
2022/04/24 09:05:28;;;;;;;0.07;0.07;;;15.10;99.90;;;;;;5003636;28;20318;-71
2022/04/24 09:08:06;;;;;;;0.10;0.10;;;15.10;99.90;;;;;;5000932;28;20258;-72
2022/04/24 09:10:33;;;;;;;0.00;0.00;;;15.30;99.90;;;;;;5022632;28;20224;-73
2022/04/24 09:13:03;;;;;;;0.10;0.10;;;15.20;99.90;;;;;;5022923;28;20279;-72
2022/04/24 09:15:34;;;;;;;0.00;0.00;;;15.40;99.90;;;;;;5002262;28;20289;-73
2022/04/24 09:18:02;;;;;;;0.10;0.10;;;15.50;99.90;;;;;;5010628;28;20204;-74
2022/04/24 09:20:36;;;;;;;0.10;0.10;;;15.50;99.90;;;;;;5019079;28;20231;-74
2022/04/24 09:23:03;;;;;;;0.00;0.00;;;15.70;99.90;;;;;;5017343;28;20219;-75
2022/04/24 09:25:39;;;;;;;0.10;0.10;;;;;;;;;;5003862;28;20192;-73
2022/04/24 09:28:07;;;;;;;0.00;0.00;;;;;;;;;;5021791;28;20203;-73
2022/04/24 09:30:36;;;;;;;0.00;0.00;;;;;;;;;;5004612;28;20669;-73
2022/04/24 09:33:03;;;;;;;0.03;0.03;;;;;;;;;;5021268;28;20187;-74
2022/04/24 09:35:33;;;;;;;0.00;0.00;;;;;;;;;;5020179;28;20226;-74
2022/04/24 09:38:18;;;;;;;0.10;0.10;;;;;;;;;;5001972;28;20199;-74
2022/04/24 09:40:45;;;;;;;0.00;0.00;;;;;;;;;;5004150;28;20207;-73
2022/04/24 09:43:14;;;;;;;0.00;0.00;;;15.90;99.90;;;;;;5003364;28;20216;-74
2022/04/24 09:45:42;;;;;;;0.00;0.00;;;16.30;99.90;;;;;;5007686;28;20218;-74
2022/04/24 09:48:14;;;;;;;0.00;0.00;;;;;;;;;;5005969;28;20207;-74
2022/04/24 09:50:43;;;;;;;0.10;0.10;;;;;;;;;;5005871;28;20200;-74
2022/04/24 09:53:13;;;;;;;0.00;0.00;;;;;;;;;;4999942;28;20216;-74
2022/04/24 09:55:41;;;;;;;0.10;0.10;;;;;;;;;;5017449;28;20290;-74
2022/04/24 09:58:09;;;;;;;0.00;0.00;;;16.40;99.90;;;;;;5028733;28;20195;-74
2022/04/24 10:00:36;;;;;;;0.00;0.00;;;;;;;;;;5021002;28;20227;-73
2022/04/24 10:03:04;;;;;;;0.00;0.00;;;;;;;;;;5021023;28;20249;-74
2022/04/24 10:05:31;;;;;;;0.00;0.00;;;;;;;;;;5004279;28;20223;-73
2022/04/24 10:08:02;;;;;;;0.00;0.00;;;;;;;;;;4998462;28;20251;-73
2022/04/24 10:10:30;;;;;;;0.03;0.03;;;;;;;;;;5022545;28;20227;-74
2022/04/24 10:13:01;;;;;;;0.00;0.00;;;;;;;;;;5023270;28;20211;-73
2022/04/24 10:15:31;;;;;;;0.00;0.00;;;;;;;;;;5014592;28;20208;-73
2022/04/24 10:18:10;;;;;;;0.00;0.00;;;;;;;;;;5004975;28;20286;-75
2022/04/24 10:20:50;;;;;;;0.00;0.00;;;;;;;;;;5009081;28;20218;-74
2022/04/24 10:23:29;;;;;;;0.03;0.03;;;;;;;;;;5035781;22;20220;-86
2022/04/24 10:29:21;;;;;;;0.00;0.00;;;;;;;;;;5034896;28;20307;-91
2022/04/24 10:32:10;;;;;;;;;;;;;;;;;;;;;
2022/04/24 10:34:48;;;;;;;0.00;0.00;;;;;;;;;;5047630;28;20204;-90
2022/04/24 10:37:35;;;;;;;0.00;0.00;;;;;;;;;;5025399;28;20215;-86
2022/04/24 10:40:19;;;;;;;0.00;0.00;;;;;;;;;;5049768;28;20205;-87
2022/04/24 10:43:16;;;;;;;0.00;0.00;;;;;;;;;;5057909;28;20207;-87
2022/04/24 10:46:00;;;;;;;0.00;0.00;;;;;;;;;;5032916;28;20301;-88
2022/04/24 10:51:40;;;;;;;0.00;0.00;;;;;;;;;;5029207;28;20215;-88
2022/04/24 10:54:38;;;;;;;0.10;0.10;;;;;;;;;;5049868;28;20267;-91
2022/04/24 11:08:01;;;;;;;0.00;0.00;;;;;;;;;;4985163;22;20348;-74
2022/04/24 11:10:29;;;;;;;0.00;0.00;;;;;;;;;;5022870;28;20207;-73
2022/04/24 11:12:57;;;;;;;0.00;0.00;;;;;;;;;;5025580;28;20301;-73
2022/04/24 11:15:24;;;;;;;0.00;0.00;;;;;;;;;;5025289;28;20796;-74
2022/04/24 11:17:52;;;;;;;0.00;0.00;;;;;;;;;;5044398;28;20206;-74
2022/04/24 11:20:27;;;;;;;0.00;0.00;;;;;;;;;;5024633;28;20257;-73
2022/04/24 11:22:56;;;;;;;0.00;0.00;;;;;;;;;;5024212;28;20202;-73
2022/04/24 11:25:28;;;;;;;0.00;0.00;;;;;;;;;;5041982;28;20223;-74
2022/04/24 11:27:57;;;;;;;0.00;0.00;;;;;;;;;;5036760;28;20287;-72
2022/04/24 11:30:26;;;;;;;0.00;0.00;;;;;;;;;;5041649;28;20199;-74
2022/04/24 11:32:57;;;;;;;0.00;0.00;;;;;;;;;;5042554;28;20504;-73
2022/04/24 11:35:26;;;;;;;0.00;0.00;;;;;;;;;;5025787;28;20269;-73
2022/04/24 11:37:54;;;;;;;0.00;0.00;;;;;;;;;;5024806;28;20199;-73
2022/04/24 11:40:26;;;;;;;0.00;0.00;;;;;;;;;;5020111;28;20203;-72
2022/04/24 11:51:05;;;;;;;0.10;0.10;;;;;;;;;;4997706;28;20724;-73
2022/04/24 11:53:32;;;;;;;0.00;0.00;;;;;;;;;;4992292;28;20240;-74
2022/04/24 11:56:04;;;;;;;0.00;0.00;;;;;;;;;;4980519;28;20197;-73
2022/04/24 11:58:35;;;;;;;0.00;0.00;;;;;;;;;;4993250;28;20214;-73
2022/04/24 12:01:04;;;;;;;0.00;0.00;;;;;;;;;;4981181;28;20197;-74
2022/04/24 12:03:32;;;;;;;0.00;0.00;;;;;;;;;;4999407;28;20225;-75
2022/04/24 12:06:00;;;;;;;0.00;0.00;;;;;;;;;;4982307;28;20213;-73
2022/04/24 12:08:28;;;;;;;0.00;0.00;;;;;;;;;;4976856;28;20272;-74
2022/04/24 12:10:56;;;;;;;0.03;0.03;;;;;;;;;;4980893;28;20212;-73
2022/04/24 12:13:25;;;;;;;0.00;0.00;;;;;;;;;;4980208;28;20792;-74
2022/04/24 12:15:56;;;;;;;0.00;0.00;;;;;;;;;;4997176;28;20205;-73
2022/04/24 12:18:24;;;;;;;0.00;0.00;;;;;;;;;;4979945;28;20216;-73
2022/04/24 12:20:52;;;;;;;0.00;0.00;;;;;;;;;;4982052;28;20284;-73
2022/04/24 12:23:21;;;;;;;0.00;0.00;;;;;;;;;;4980669;28;20225;-74
2022/04/24 12:25:49;;;;;;;0.00;0.00;;;;;;;;;;4982762;28;20320;-74
2022/04/24 12:28:29;;;;;;;0.00;0.00;;;;;;;;;;4981295;28;20303;-73
2022/04/24 12:31:01;;;;;;;0.00;0.00;;;;;;;;;;4980350;28;20217;-73
2022/04/24 12:33:28;;;;;;;0.00;0.00;;;;;;;;;;4995263;28;20303;-72
2022/04/24 12:35:56;;;;;;;0.00;0.00;;;;;;;;;;4996325;28;20209;-73
2022/04/24 12:38:24;;;;;;;0.00;0.00;;;;;;;;;;4978911;28;20197;-69
2022/04/24 12:40:57;;;;;;;0.00;0.00;;;;;;;;;;4979195;28;20209;-70
2022/04/24 12:43:26;;;;;;;0.00;0.00;;;;;;;;;;4977804;28;20225;-72
2022/04/24 12:45:58;;;;;;;0.10;0.10;;;;;;;;;;4979168;28;20217;-73
2022/04/24 12:48:26;;;;;;;0.00;0.00;;;;;;;;;;4978826;28;20205;-74
2022/04/24 12:50:53;;;;;;;0.00;0.00;;;;;;;;;;4980766;28;20287;-74
2022/04/24 12:53:22;;;;;;;0.00;0.00;;;;;;;;;;4980357;28;20217;-73
2022/04/24 12:55:51;;;;;;;0.00;0.00;;;;;;;;;;4979731;28;20220;-73
2022/04/24 12:58:19;;;;;;;0.00;0.00;;;;;;;;;;4977835;28;20212;-73
2022/04/24 13:00:47;;;;;;;0.00;0.00;;;;;;;;;;4995960;28;20228;-73
2022/04/24 13:03:16;;;;;;;0.00;0.00;;;;;;;;;;4978954;28;20225;-72
2022/04/24 13:05:44;;;;;;;0.00;0.00;;;;;;;;;;4978199;28;20295;-73
2022/04/24 13:08:11;;;;;;;0.10;0.00;;;;;;;;;;4988999;28;20269;-74
2022/04/24 13:10:39;;;;;;;0.00;0.00;;;;;;;;;;4979305;28;20260;-73
2022/04/24 13:13:07;;;;;;;0.00;0.00;;;;;;;;;;4984450;28;20212;-73
2022/04/24 13:15:35;;;;;;;0.00;0.00;;;;;;;;;;4995455;28;20202;-72
2022/04/24 13:18:10;;;;;;;0.00;0.00;;;;;;;;;;4994829;28;20205;-72
2022/04/24 13:20:40;;;;;;;0.00;0.00;;;;;;;;;;4995780;28;20229;-73
2022/04/24 13:23:08;;;;;;;0.00;0.00;;;;;;;;;;4978327;28;20781;-68
2022/04/24 13:25:36;;;;;;;0.00;0.00;;;;;;;;;;4993529;28;20753;-70
2022/04/24 13:28:03;;;;;;;0.00;0.00;;;;;;;;;;4981060;28;20437;-72
2022/04/24 13:30:31;;;;;;;0.00;0.00;;;;;;;;;;4977077;28;20201;-72
2022/04/24 13:33:00;;;;;;;0.00;0.00;;;;;;;;;;4980111;28;20200;-73
2022/04/24 13:35:27;;;;;;;0.00;0.00;;;;;;;;;;4990360;28;20224;-74
2022/04/24 13:40:42;;;;;;;0.00;0.00;;;;;;;;;;4979472;28;20205;-71
2022/04/24 13:43:09;;;;;;;0.10;0.00;;;;;;;;;;4978933;28;20209;-74
2022/04/24 13:45:37;;;;;;;0.00;0.00;;;;;;;;;;4999293;28;20221;-74
2022/04/24 13:48:05;;;;;;;0.10;0.10;;;;;;;;;;4999789;28;20287;-73
2022/04/24 13:50:32;;;;;;;0.00;0.00;;;;;;;;;;4984323;28;20848;-74
2022/04/24 13:53:04;;;;;;;0.00;0.00;;;;;;;;;;4996412;28;20291;-73
2022/04/24 13:55:31;;;;;;;0.00;0.00;;;;;;;;;;4987129;28;20198;-73
2022/04/24 13:57:59;;;;;;;0.00;0.00;;;;;;;;;;4995500;28;20224;-77
2022/04/24 14:00:27;;;;;;;0.00;0.00;;;;;;;;;;4981302;28;20758;-72
2022/04/24 14:02:57;;;;;;;0.00;0.00;;;;;;;;;;4981536;28;20639;-72
2022/04/24 14:05:26;;;;;;;0.00;0.00;;;;;;;;;;4981706;28;20325;-71
2022/04/24 14:07:53;;;;;;;0.10;0.10;;;;;;;;;;4982774;28;20198;-71
2022/04/24 14:10:22;;;;;;;0.00;0.00;;;;;;;;;;4982295;28;20213;-70
2022/04/24 14:12:49;;;;;;;0.10;0.10;;;;;;;;;;4999502;28;20221;-69
2022/04/24 14:15:22;;;;;;;0.00;0.00;;;;;;;;;;4982154;28;20246;-68
2022/04/24 14:17:50;;;;;;;0.00;0.00;;;;;;;;;;4983893;28;20248;-69
2022/04/24 14:20:17;;;;;;;0.00;0.00;;;;;;;;;;4983521;28;20197;-70
2022/04/24 14:22:45;;;;;;;0.00;0.00;;;;;;;;;;5002633;28;20217;-69
2022/04/24 14:25:12;;;;;;;0.00;0.00;;;;;;;;;;4999580;28;20237;-69
2022/04/24 14:27:41;;;;;;;0.00;0.00;;;;;;;;;;4988044;28;20651;-74
2022/04/24 14:30:10;;;;;;;0.00;0.00;;;;;;;;;;4998055;28;20726;-70
2022/04/24 14:32:38;;;;;;;0.00;0.00;;;;;;;;;;4982474;28;20205;-69
2022/04/24 14:35:06;;;;;;;0.00;0.00;;;;;;;;;;4983950;28;20607;-70
2022/04/24 14:37:34;;;;;;;0.00;0.00;;;;;;;;;;4979552;28;20206;-71
2022/04/24 14:40:02;;;;;;;0.00;0.00;;;;;;;;;;4995643;28;20213;-72
2022/04/24 14:42:33;;;;;;;0.00;0.00;;;;;;;;;;4980139;28;20232;-70
2022/04/24 14:45:02;;;;;;;0.00;0.00;;;;;;;;;;4979196;28;20222;-70
2022/04/24 14:55:49;;;;;;;0.00;0.00;;;;;;;;;;4980839;28;20197;-68
2022/04/24 14:58:17;;;;;;;0.00;0.00;;;;;;;;;;4996747;28;20200;-71
2022/04/24 15:00:47;;;;;;;0.00;0.00;;;;;;;;;;4983103;28;20198;-70
2022/04/24 15:03:15;;;;;;;0.00;0.00;;;;;;;;;;4979835;28;20228;-71
2022/04/24 15:05:43;;;;;;;0.00;0.00;;;;;;;;;;4979537;28;20225;-70
2022/04/24 15:08:12;;;;;;;0.10;0.10;;;;;;;;;;4979094;28;20220;-70
2022/04/24 15:10:39;;;;;;;0.00;0.00;;;;;;;;;;4983644;28;20233;-71
2022/04/24 15:13:07;;;;;;;0.10;0.10;;;;;;;;;;4982337;28;20216;-71
2022/04/24 15:15:34;;;;;;;0.00;0.00;;;;;;;;;;4981932;28;20197;-71
2022/04/24 15:18:03;;;;;;;0.00;0.00;;;;;;;;;;4981472;28;20194;-71